首页
METAR-TAF:

METAR-TAF

机场 :

達拉謨, 英格兰

纬度: 54-31N, 经度: 001-25W, 海拔: 37米

当前天气观测

该预报发布于6小时和51分钟前的16:50 UTC
风速14节,风向
温度 12°C
湿度 71%
气压 1012 hPa
能见度10公里或以上
散云层高于2100英尺
多云层高于3900英尺

METAR: EGNV 031650Z 01014KT 9999 SCT021 BKN039 12/07 Q1012

时间: 00:41 (23:41 UTC)

预报

该预报发布于9小时和41分钟前的14:00 UTC
预报有效从03日的 15点(UTC)到 03日的 23点(UTC)
风速12节,风向
能见度10公里或以上
多云层高于2000英尺
短暂存在
从 03日的 15点(UTC)到 03日的 21点(UTC)
风速15节,风向,有时为25节阵风
几率 30% :
短暂存在
从 03日的 15点(UTC)到 03日的 23点(UTC)
能見度: 5000
多云层高于1000英尺

TAF: EGNV 031400Z 0315/0323 36012KT 9999 BKN020 TEMPO 0315/0321 01015G25KT PROB30 TEMPO 0315/0323 5000 RA BKN010

超过4000个机场的气象观测和天气预报(METAR&TAF报告)。

可查询的气象台以黄色和红色小点在地图上表示。

将鼠标移到小点上方,可查看气象台名称。

然后点击查看天气观测和预报。

如需切换地图:点击带黑十字的绿色按钮放大地图;点击带横线的绿色按钮缩小地图;或者点击绿色箭头查看邻近地区的地图。


METAR-TAF: